KCNK

Blosser Municipal Airport

Concordia, Kansas, USA
METAR KCNK 151555Z AUTO 00000KT 10SM CLR 03/M01 A3021 RMK AO2 SLP240 T00281006
Observed Flight Rules
Dec-15 @ 15:55 UTC (28 minutes ago) Visual Flight Rules
Visibility Clouds
10 miles
  • Clear skies
Temperatures Readings
Current 3°C / 37°F
Dewpoint -1°C / 30°F
Humidity 75%
Altimeter 30.21" Hg
Pressure 1024 hPa
Elevation 447
METAR KCNK 151555Z AUTO 00000KT 10SM CLR 03/M01 A3021 RMK AO2 SLP240 T00281006
Observed Flight Rules
Dec-15 @ 15:55 UTC
(28 minutes ago)
VFR
Clouds
  • Clear skies
Temperature Dewpoint
3°C / 37°F -1°C / 30°F
Humidity Altimeter Pressure
75% 30.21" Hg 1024 hPa